Time,TemperatureF,DewpointF,PressureIn,WindDirection,WindDirectionDegrees,WindSpeedMPH,WindSpeedGustMPH,Humidity,HourlyPrecipIn,Conditions,Clouds,dailyrainin,SoftwareType,DateUTC
2013-03-03 00:08:00,43.5,37.0,30.35,NW,319,0.0,5.0,78,0.00,,,0.00,weatherlink.com 1.10,2013-03-03 08:08:00,
2013-03-03 00:23:00,43.0,37.0,30.36,West,277,0.0,4.0,79,0.00,,,0.00,weatherlink.com 1.10,2013-03-03 08:23:00,
2013-03-03 00:38:00,40.7,36.0,30.36,WNW,284,0.0,1.0,84,0.00,,,0.00,weatherlink.com 1.10,2013-03-03 08:38:00,
2013-03-03 00:53:00,39.9,36.0,30.37,WNW,284,0.0,2.0,86,0.00,,,0.00,weatherlink.com 1.10,2013-03-03 08:53:00,
2013-03-03 01:08:00,39.5,36.0,30.37,NW,322,0.0,1.0,87,0.00,,,0.00,weatherlink.com 1.10,2013-03-03 09:08:00,
2013-03-03 01:23:00,39.1,36.0,30.38,NW,322,0.0,1.0,88,0.00,,,0.00,weatherlink.com 1.10,2013-03-03 09:23:00,
2013-03-03 01:38:00,37.7,35.0,30.39,NW,322,0.0,1.0,90,0.00,,,0.00,weatherlink.com 1.10,2013-03-03 09:38:00,
2013-03-03 01:53:00,37.1,35.0,30.39,NW,322,0.0,0.0,92,0.00,,,0.00,weatherlink.com 1.10,2013-03-03 09:53:00,
2013-03-03 02:08:00,37.0,35.0,30.40,NE,51,1.0,1.0,93,0.00,,,0.00,weatherlink.com 1.10,2013-03-03 10:08:00,
2013-03-03 02:23:00,37.1,35.0,30.40,WNW,303,0.0,0.0,92,0.00,,,0.00,weatherlink.com 1.10,2013-03-03 10:23:00,
2013-03-03 02:38:00,36.5,35.0,30.39,NW,304,0.0,1.0,93,0.00,,,0.00,weatherlink.com 1.10,2013-03-03 10:38:00,
2013-03-03 02:53:00,36.7,35.0,30.40,North,349,0.0,1.0,93,0.00,,,0.00,weatherlink.com 1.10,2013-03-03 10:53:00,
2013-03-03 03:08:00,37.4,35.0,30.39,NNE,29,1.0,1.0,92,0.00,,,0.00,weatherlink.com 1.10,2013-03-03 11:08:00,
2013-03-03 03:23:00,37.1,35.0,30.39,NNE,29,0.0,1.0,92,0.00,,,0.00,weatherlink.com 1.10,2013-03-03 11:23:00,
2013-03-03 03:38:00,36.5,34.0,30.39,NNE,29,0.0,1.0,92,0.00,,,0.00,weatherlink.com 1.10,2013-03-03 11:38:00,
2013-03-03 03:53:00,35.7,34.0,30.38,NNE,29,0.0,0.0,94,0.00,,,0.00,weatherlink.com 1.10,2013-03-03 11:53:00,
2013-03-03 04:08:00,35.3,34.0,30.38,NNW,328,0.0,1.0,95,0.00,,,0.00,weatherlink.com 1.10,2013-03-03 12:08:00,
2013-03-03 04:23:00,35.2,34.0,30.38,NNW,329,0.0,1.0,95,0.00,,,0.00,weatherlink.com 1.10,2013-03-03 12:23:00,
2013-03-03 04:38:00,34.6,34.0,30.38,NNW,328,0.0,1.0,96,0.00,,,0.00,weatherlink.com 1.10,2013-03-03 12:38:00,
2013-03-03 04:53:00,34.1,33.0,30.38,NNW,329,0.0,0.0,96,0.00,,,0.00,weatherlink.com 1.10,2013-03-03 12:53:00,
2013-03-03 05:08:00,33.7,33.0,30.38,NNW,328,0.0,0.0,96,0.00,,,0.00,weatherlink.com 1.10,2013-03-03 13:08:00,
2013-03-03 05:23:00,33.6,33.0,30.38,NNW,328,0.0,0.0,97,0.00,,,0.00,weatherlink.com 1.10,2013-03-03 13:23:00,
2013-03-03 05:38:00,33.5,33.0,30.39,NNW,328,0.0,0.0,96,0.00,,,0.00,weatherlink.com 1.10,2013-03-03 13:38:00,
2013-03-03 05:53:00,33.7,33.0,30.39,NNW,328,0.0,0.0,97,0.00,,,0.00,weatherlink.com 1.10,2013-03-03 13:53:00,
2013-03-03 06:08:00,33.6,33.0,30.40,NNW,328,0.0,0.0,97,0.00,,,0.00,weatherlink.com 1.10,2013-03-03 14:08:00,
2013-03-03 06:23:00,33.3,32.0,30.40,NNW,328,0.0,0.0,96,0.00,,,0.00,weatherlink.com 1.10,2013-03-03 14:23:00,
2013-03-03 06:38:00,33.0,32.0,30.41,NNW,347,0.0,1.0,96,0.00,,,0.00,weatherlink.com 1.10,2013-03-03 14:38:00,
2013-03-03 06:54:00,32.9,32.0,30.41,NNW,347,0.0,0.0,96,0.00,,,0.00,weatherlink.com 1.10,2013-03-03 14:54:00,
2013-03-03 07:09:00,32.8,32.0,30.41,NNW,347,0.0,0.0,97,0.00,,,0.00,weatherlink.com 1.10,2013-03-03 15:09:00,
2013-03-03 07:24:00,33.0,32.0,30.41,NNW,347,0.0,0.0,97,0.00,,,0.00,weatherlink.com 1.10,2013-03-03 15:24:00,
2013-03-03 07:39:00,33.3,33.0,30.41,NNW,347,0.0,0.0,97,0.00,,,0.00,weatherlink.com 1.10,2013-03-03 15:39:00,
2013-03-03 07:54:00,33.9,33.0,30.41,NNW,347,0.0,0.0,97,0.00,,,0.00,weatherlink.com 1.10,2013-03-03 15:54:00,
2013-03-03 08:09:00,35.6,35.0,30.41,NNE,20,0.0,1.0,98,0.00,,,0.00,weatherlink.com 1.10,2013-03-03 16:09:00,
2013-03-03 08:24:00,37.3,36.0,30.42,NNE,32,0.0,2.0,95,0.00,,,0.00,weatherlink.com 1.10,2013-03-03 16:24:00,
2013-03-03 08:39:00,39.0,37.0,30.42,NE,54,1.0,3.0,91,0.00,,,0.00,weatherlink.com 1.10,2013-03-03 16:39:00,
2013-03-03 08:54:00,40.5,37.0,30.42,NE,44,0.0,4.0,88,0.01,,,0.01,weatherlink.com 1.10,2013-03-03 16:54:00,
2013-03-03 09:09:00,42.0,37.0,30.42,NE,43,4.0,6.0,83,0.01,,,0.01,weatherlink.com 1.10,2013-03-03 17:09:00,
2013-03-03 09:24:00,42.6,38.0,30.42,NNE,25,0.0,6.0,82,0.01,,,0.01,weatherlink.com 1.10,2013-03-03 17:24:00,
2013-03-03 09:39:00,43.7,37.0,30.42,NE,44,0.0,4.0,76,0.01,,,0.01,weatherlink.com 1.10,2013-03-03 17:39:00,
2013-03-03 09:54:00,44.3,37.0,30.42,NE,39,3.0,5.0,75,0.00,,,0.01,weatherlink.com 1.10,2013-03-03 17:54:00,
2013-03-03 10:09:00,44.9,37.0,30.42,ENE,74,4.0,5.0,73,0.00,,,0.01,weatherlink.com 1.10,2013-03-03 18:09:00,
2013-03-03 10:24:00,46.4,37.0,30.42,NNE,27,2.0,7.0,70,0.00,,,0.01,weatherlink.com 1.10,2013-03-03 18:24:00,
2013-03-03 10:39:00,47.4,36.0,30.41,ENE,58,2.0,5.0,64,0.00,,,0.01,weatherlink.com 1.10,2013-03-03 18:39:00,
2013-03-03 10:54:00,47.5,35.0,30.41,ESE,116,0.0,4.0,62,0.00,,,0.01,weatherlink.com 1.10,2013-03-03 18:54:00,
2013-03-03 11:09:00,47.8,34.0,30.41,NE,39,4.0,4.0,59,0.00,,,0.01,weatherlink.com 1.10,2013-03-03 19:09:00,
2013-03-03 11:24:00,47.4,34.0,30.41,ENE,77,1.0,3.0,59,0.00,,,0.01,weatherlink.com 1.10,2013-03-03 19:24:00,
2013-03-03 11:39:00,49.4,33.0,30.40,WNW,290,2.0,6.0,53,0.00,,,0.01,weatherlink.com 1.10,2013-03-03 19:39:00,
2013-03-03 11:54:00,48.9,33.0,30.40,WNW,302,1.0,6.0,55,0.00,,,0.01,weatherlink.com 1.10,2013-03-03 19:54:00,
2013-03-03 12:09:00,49.3,33.0,30.39,ENE,60,6.0,7.0,53,0.00,,,0.01,weatherlink.com 1.10,2013-03-03 20:09:00,
2013-03-03 12:24:00,48.9,33.0,30.39,NW,308,0.0,5.0,54,0.00,,,0.01,weatherlink.com 1.10,2013-03-03 20:24:00,
2013-03-03 12:39:00,49.3,33.0,30.39,NW,318,3.0,8.0,53,0.00,,,0.01,weatherlink.com 1.10,2013-03-03 20:39:00,
2013-03-03 12:54:00,50.1,32.0,30.38,NNW,343,1.0,8.0,50,0.00,,,0.01,weatherlink.com 1.10,2013-03-03 20:54:00,
2013-03-03 13:09:00,49.5,31.0,30.38,NE,53,2.0,9.0,50,0.00,,,0.01,weatherlink.com 1.10,2013-03-03 21:09:00,
2013-03-03 13:24:00,49.8,30.0,30.37,NE,46,5.0,8.0,47,0.00,,,0.01,weatherlink.com 1.10,2013-03-03 21:24:00,
2013-03-03 13:39:00,49.7,31.0,30.37,ESE,122,0.0,10.0,49,0.00,,,0.01,weatherlink.com 1.10,2013-03-03 21:39:00,
2013-03-03 13:54:00,50.4,31.0,30.37,NNW,343,1.0,10.0,47,0.00,,,0.01,weatherlink.com 1.10,2013-03-03 21:54:00,
2013-03-03 14:09:00,50.8,33.0,30.37,WNW,294,2.0,7.0,50,0.00,,,0.01,weatherlink.com 1.10,2013-03-03 22:09:00,
2013-03-03 14:24:00,50.3,31.0,30.36,NE,44,5.0,9.0,48,0.00,,,0.01,weatherlink.com 1.10,2013-03-03 22:24:00,
2013-03-03 14:39:00,50.6,31.0,30.36,NNW,345,2.0,8.0,48,0.00,,,0.01,weatherlink.com 1.10,2013-03-03 22:39:00,
2013-03-03 14:54:00,50.7,31.0,30.36,North,5,1.0,7.0,48,0.00,,,0.01,weatherlink.com 1.10,2013-03-03 22:54:00,
2013-03-03 15:09:00,50.8,32.0,30.36,NNE,25,1.0,7.0,48,0.00,,,0.01,weatherlink.com 1.10,2013-03-03 23:09:00,
2013-03-03 15:24:00,50.6,31.0,30.36,ENE,65,1.0,9.0,47,0.00,,,0.01,weatherlink.com 1.10,2013-03-03 23:24:00,
2013-03-03 15:39:00,50.8,31.0,30.36,NNE,33,10.0,10.0,46,0.00,,,0.01,weatherlink.com 1.10,2013-03-03 23:39:00,
2013-03-03 15:54:00,50.1,30.0,30.36,NNE,26,3.0,7.0,47,0.00,,,0.01,weatherlink.com 1.10,2013-03-03 23:54:00,
2013-03-03 16:09:00,50.3,31.0,30.35,NW,324,3.0,8.0,47,0.00,,,0.01,weatherlink.com 1.10,2013-03-04 00:09:00,
2013-03-03 16:24:00,50.2,30.0,30.35,WNW,298,3.0,8.0,47,0.00,,,0.01,weatherlink.com 1.10,2013-03-04 00:24:00,
2013-03-03 16:39:00,49.7,31.0,30.35,NNE,12,3.0,5.0,49,0.00,,,0.01,weatherlink.com 1.10,2013-03-04 00:39:00,
2013-03-03 16:54:00,48.9,31.0,30.34,West,278,0.0,5.0,51,0.00,,,0.01,weatherlink.com 1.10,2013-03-04 00:54:00,
2013-03-03 17:09:00,48.4,31.0,30.34,North,9,2.0,4.0,52,0.00,,,0.01,weatherlink.com 1.10,2013-03-04 01:09:00,
2013-03-03 17:24:00,47.6,32.0,30.34,ENE,68,1.0,4.0,55,0.00,,,0.01,weatherlink.com 1.10,2013-03-04 01:24:00,
2013-03-03 17:39:00,47.0,32.0,30.34,NNE,30,4.0,4.0,56,0.00,,,0.01,weatherlink.com 1.10,2013-03-04 01:39:00,
2013-03-03 17:54:00,46.3,32.0,30.34,West,278,1.0,4.0,58,0.00,,,0.01,weatherlink.com 1.10,2013-03-04 01:54:00,
2013-03-03 18:09:00,45.3,32.0,30.34,North,4,0.0,3.0,60,0.00,,,0.01,weatherlink.com 1.10,2013-03-04 02:09:00,
2013-03-03 18:24:00,44.3,32.0,30.34,ENE,65,0.0,2.0,62,0.00,,,0.01,weatherlink.com 1.10,2013-03-04 02:24:00,
2013-03-03 18:39:00,43.3,32.0,30.34,ENE,64,0.0,0.0,65,0.00,,,0.01,weatherlink.com 1.10,2013-03-04 02:39:00,
2013-03-03 18:54:00,42.5,32.0,30.34,NE,36,0.0,1.0,67,0.00,,,0.01,weatherlink.com 1.10,2013-03-04 02:54:00,
2013-03-03 19:09:00,41.7,32.0,30.34,NE,34,0.0,1.0,69,0.00,,,0.01,weatherlink.com 1.10,2013-03-04 03:09:00,
2013-03-03 19:24:00,41.1,32.0,30.34,NE,42,0.0,0.0,71,0.00,,,0.01,weatherlink.com 1.10,2013-03-04 03:24:00,
2013-03-03 19:39:00,41.3,33.0,30.34,NNE,27,1.0,2.0,72,0.00,,,0.01,weatherlink.com 1.10,2013-03-04 03:39:00,
2013-03-03 19:54:00,41.6,33.0,30.34,NE,34,1.0,2.0,71,0.00,,,0.01,weatherlink.com 1.10,2013-03-04 03:54:00,
2013-03-03 20:09:00,41.1,33.0,30.34,North,1,0.0,1.0,72,0.00,,,0.01,weatherlink.com 1.10,2013-03-04 04:09:00,
2013-03-03 20:25:00,40.7,33.0,30.33,NNE,23,0.0,1.0,73,0.00,,,0.01,weatherlink.com 1.10,2013-03-04 04:25:00,
2013-03-03 20:40:00,40.2,33.0,30.33,NNW,328,0.0,1.0,74,0.00,,,0.01,weatherlink.com 1.10,2013-03-04 04:40:00,
2013-03-03 20:55:00,39.9,33.0,30.34,WNW,298,1.0,2.0,75,0.00,,,0.01,weatherlink.com 1.10,2013-03-04 04:55:00,
2013-03-03 21:10:00,40.1,34.0,30.33,NW,311,0.0,4.0,79,0.00,,,0.01,weatherlink.com 1.10,2013-03-04 05:10:00,
2013-03-03 21:25:00,39.8,35.0,30.34,WNW,294,1.0,5.0,82,0.00,,,0.01,weatherlink.com 1.10,2013-03-04 05:25:00,
2013-03-03 21:40:00,39.5,35.0,30.34,NW,319,0.0,4.0,84,0.00,,,0.01,weatherlink.com 1.10,2013-03-04 05:40:00,
2013-03-03 21:55:00,39.3,35.0,30.33,NNW,347,0.0,3.0,85,0.00,,,0.01,weatherlink.com 1.10,2013-03-04 05:55:00,
2013-03-03 22:10:00,39.1,35.0,30.33,WNW,292,1.0,4.0,85,0.00,,,0.01,weatherlink.com 1.10,2013-03-04 06:10:00,
2013-03-03 22:25:00,38.9,35.0,30.32,NW,323,1.0,3.0,85,0.00,,,0.01,weatherlink.com 1.10,2013-03-04 06:25:00,
2013-03-03 22:41:00,38.5,35.0,30.32,NNE,16,0.0,2.0,86,0.00,,,0.01,weatherlink.com 1.10,2013-03-04 06:41:00,
2013-03-03 22:55:00,38.5,35.0,30.32,NW,326,0.0,4.0,86,0.00,,,0.01,weatherlink.com 1.10,2013-03-04 06:55:00,
2013-03-03 23:10:00,38.4,35.0,30.32,NE,52,0.0,5.0,86,0.00,,,0.01,weatherlink.com 1.10,2013-03-04 07:10:00,
2013-03-03 23:25:00,38.1,34.0,30.32,NE,53,0.0,1.0,86,0.00,,,0.01,weatherlink.com 1.10,2013-03-04 07:25:00,
2013-03-03 23:40:00,37.9,34.0,30.32,WNW,295,0.0,2.0,87,0.00,,,0.01,weatherlink.com 1.10,2013-03-04 07:40:00,
2013-03-03 23:55:00,37.9,34.0,30.32,North,11,0.0,5.0,87,0.00,,,0.01,weatherlink.com 1.10,2013-03-04 07:55:00,